Time;durP1;ratioP1;P1;durP2;ratioP2;P2;SDS_P1;SDS_P2;PMS_P1;PMS_P2;Temp;Humidity;BMP_temperature;BMP_pressure;BME280_temperature;BME280_humidity;BME280_pressure;Samples;Min_cycle;Max_cycle;Signal;HPM_P1;HPM_P2
2021/03/03 00:02:25;;;;;;;30.57;16.17;;;;;;;;;;12950068;22;20510;-79
2021/03/03 00:07:28;;;;;;;30.67;16.73;;;;;;;;;;12952278;22;20568;-78
2021/03/03 00:12:31;;;;;;;28.37;15.23;;;;;;;;;;12957221;22;20272;-78
2021/03/03 00:17:33;;;;;;;30.57;15.20;;;;;;;;;;12953568;22;21048;-79
2021/03/03 00:22:35;;;;;;;26.67;15.40;;;;;;;;;;12955841;22;20265;-78
2021/03/03 00:27:38;;;;;;;29.17;15.00;;;;;;;;;;12976908;22;20202;-79
2021/03/03 00:32:47;;;;;;;26.60;14.53;;;;;;;;;;12954495;22;20608;-79
2021/03/03 00:37:49;;;;;;;32.40;15.80;;;;;;;;;;12954822;22;20198;-80
2021/03/03 00:42:52;;;;;;;30.23;14.63;;;;;;;;;;12955299;22;20628;-80
2021/03/03 00:47:54;;;;;;;30.07;14.83;;;;;;;;;;12952873;22;20550;-78
2021/03/03 00:52:56;;;;;;;27.53;14.97;;;;;;;;;;12954721;22;20236;-79
2021/03/03 00:57:58;;;;;;;28.43;14.87;;;;;;;;;;12954472;22;20174;-80
2021/03/03 01:03:08;;;;;;;28.07;14.13;;;;;;;;;;12951642;22;20550;-78
2021/03/03 01:08:10;;;;;;;27.57;15.47;;;;;;;;;;12953536;22;20206;-80
2021/03/03 01:13:13;;;;;;;28.67;14.83;;;;;;;;;;12954485;22;20179;-78
2021/03/03 01:18:15;;;;;;;28.83;15.03;;;;;;;;;;12953360;22;20265;-79
2021/03/03 01:23:17;;;;;;;28.00;14.83;;;;;;;;;;12952674;22;20232;-79
2021/03/03 01:28:20;;;;;;;30.53;14.63;;;;;;;;;;12955243;22;20237;-78
2021/03/03 01:33:30;;;;;;;30.47;14.67;;;;;;;;;;12954152;22;20514;-80
2021/03/03 01:38:32;;;;;;;31.07;14.87;;;;;;;;;;12954308;22;20182;-79
2021/03/03 01:43:35;;;;;;;25.77;14.60;;;;;;;;;;12954117;22;20249;-79
2021/03/03 01:48:37;;;;;;;27.90;14.50;;;;;;;;;;12952913;22;20206;-79
2021/03/03 01:53:39;;;;;;;29.90;14.67;;;;;;;;;;12950924;22;20188;-79
2021/03/03 01:58:42;;;;;;;30.23;15.27;;;;;;;;;;12953022;22;20511;-79
2021/03/03 02:03:53;;;;;;;28.67;14.23;;;;;;;;;;12951795;22;21064;-78
2021/03/03 02:08:59;;;;;;;26.73;14.00;;;;;;;;;;12951846;22;20206;-79
2021/03/03 02:14:04;;;;;;;29.17;14.47;;;;;;;;;;12954059;22;20163;-79
2021/03/03 02:19:06;;;;;;;28.33;13.90;;;;;;;;;;12957268;22;20181;-79
2021/03/03 02:24:10;;;;;;;27.47;14.30;;;;;;;;;;12952084;22;20876;-79
2021/03/03 02:29:14;;;;;;;28.23;13.27;;;;;;;;;;12953473;22;20205;-79
2021/03/03 02:34:17;;;;;;;26.93;13.50;;;;;;;;;;12953249;22;20175;-79
2021/03/03 02:39:21;;;;;;;25.53;13.67;;;;;;;;;;12953011;22;20174;-79
2021/03/03 02:44:24;;;;;;;28.80;13.97;;;;;;;;;;12973561;22;20193;-79
2021/03/03 02:49:26;;;;;;;28.57;13.40;;;;;;;;;;12952038;22;20527;-80
2021/03/03 02:54:27;;;;;;;28.03;13.70;;;;;;;;;;12950639;22;20186;-79
2021/03/03 02:59:39;;;;;;;25.17;13.60;;;;;;;;;;12952164;22;20184;-78
2021/03/03 03:04:44;;;;;;;23.77;13.03;;;;;;;;;;12952627;22;20190;-78
2021/03/03 03:09:47;;;;;;;30.40;14.53;;;;;;;;;;12951068;22;20930;-78
2021/03/03 03:14:51;;;;;;;25.40;13.43;;;;;;;;;;12953315;22;20576;-78
2021/03/03 03:19:54;;;;;;;22.97;13.27;;;;;;;;;;12953043;22;20179;-78
2021/03/03 03:24:57;;;;;;;27.80;14.00;;;;;;;;;;12952685;22;20511;-78
2021/03/03 03:30:00;;;;;;;25.13;13.60;;;;;;;;;;12952689;22;20516;-78
2021/03/03 03:35:02;;;;;;;24.73;13.80;;;;;;;;;;12952873;22;20197;-79
2021/03/03 03:40:04;;;;;;;31.97;14.23;;;;;;;;;;12952859;22;20178;-77
2021/03/03 03:45:08;;;;;;;28.97;13.90;;;;;;;;;;12951839;22;20174;-80
2021/03/03 03:50:10;;;;;;;29.10;13.83;;;;;;;;;;12955609;22;20209;-79
2021/03/03 03:55:12;;;;;;;31.93;14.07;;;;;;;;;;12954625;22;20530;-79
2021/03/03 04:00:17;;;;;;;25.33;13.60;;;;;;;;;;12955389;22;20183;-79
2021/03/03 04:05:22;;;;;;;26.73;13.67;;;;;;;;;;12957098;22;20873;-79
2021/03/03 04:10:25;;;;;;;31.10;14.60;;;;;;;;;;12955424;22;20617;-79
2021/03/03 04:15:28;;;;;;;26.50;14.23;;;;;;;;;;12955983;22;20178;-78
2021/03/03 04:20:30;;;;;;;28.53;13.83;;;;;;;;;;12955870;22;20628;-80
2021/03/03 04:25:32;;;;;;;27.97;14.60;;;;;;;;;;12955003;22;20537;-79
2021/03/03 04:30:35;;;;;;;24.20;13.30;;;;;;;;;;12955847;22;20233;-79
2021/03/03 04:35:45;;;;;;;24.63;13.93;;;;;;;;;;12955208;22;20242;-78
2021/03/03 04:40:47;;;;;;;25.90;14.73;;;;;;;;;;12955361;22;20170;-79
2021/03/03 04:45:50;;;;;;;30.77;15.00;;;;;;;;;;12955116;22;20182;-79
2021/03/03 04:50:51;;;;;;;32.07;15.10;;;;;;;;;;12954651;22;20690;-79
2021/03/03 04:55:53;;;;;;;27.40;13.77;;;;;;;;;;12953724;22;20663;-78
2021/03/03 05:00:56;;;;;;;31.63;15.87;;;;;;;;;;12957296;22;20228;-78
2021/03/03 05:06:08;;;;;;;32.10;15.37;;;;;;;;;;12954865;22;20190;-79
2021/03/03 05:11:10;;;;;;;30.90;15.63;;;;;;;;;;12951663;22;20700;-79
2021/03/03 05:16:13;;;;;;;35.87;16.00;;;;;;;;;;12950129;22;20349;-77
2021/03/03 05:21:15;;;;;;;29.57;15.60;;;;;;;;;;12954094;22;20245;-79
2021/03/03 05:26:16;;;;;;;27.93;14.80;;;;;;;;;;12948063;22;20650;-78
2021/03/03 05:31:19;;;;;;;30.67;15.23;;;;;;;;;;12951623;22;20198;-77
2021/03/03 05:36:33;;;;;;;33.27;15.50;;;;;;;;;;12950406;22;20213;-77
2021/03/03 05:41:35;;;;;;;37.80;17.73;;;;;;;;;;12950069;22;20185;-78
2021/03/03 05:46:39;;;;;;;31.07;15.33;;;;;;;;;;12951696;22;20175;-77
2021/03/03 05:51:41;;;;;;;31.57;16.33;;;;;;;;;;12948371;22;20251;-80
2021/03/03 05:56:44;;;;;;;35.47;17.10;;;;;;;;;;12952952;22;20354;-78
2021/03/03 06:01:46;;;;;;;32.37;16.47;;;;;;;;;;12948332;22;20201;-79
2021/03/03 06:06:56;;;;;;;30.70;16.40;;;;;;;;;;12951002;22;20174;-77
2021/03/03 06:11:58;;;;;;;31.93;16.23;;;;;;;;;;12948679;22;20544;-78
2021/03/03 06:17:01;;;;;;;33.90;16.67;;;;;;;;;;12949412;22;20167;-80
2021/03/03 06:22:21;;;;;;;32.40;16.13;;;;;;;;;;12947907;22;20174;-80
2021/03/03 06:27:23;;;;;;;36.20;17.00;;;;;;;;;;12953679;22;20170;-77
2021/03/03 06:32:26;;;;;;;34.23;16.50;;;;;;;;;;12947765;22;20217;-78
2021/03/03 06:37:28;;;;;;;35.23;16.80;;;;;;;;;;12941377;22;20214;-79
2021/03/03 06:42:30;;;;;;;34.13;17.17;;;;;;;;;;12945296;22;20487;-79
2021/03/03 06:47:34;;;;;;;36.77;18.63;;;;;;;;;;12927374;22;20208;-77
2021/03/03 06:52:37;;;;;;;38.93;19.17;;;;;;;;;;12944966;22;20186;-78
2021/03/03 06:57:39;;;;;;;43.80;19.13;;;;;;;;;;12945937;22;20643;-78
2021/03/03 07:02:43;;;;;;;35.73;17.43;;;;;;;;;;12939166;22;20855;-79
2021/03/03 07:07:59;;;;;;;39.23;18.87;;;;;;;;;;12967267;22;20570;-80
2021/03/03 07:13:01;;;;;;;41.20;18.97;;;;;;;;;;12966363;22;20482;-79
2021/03/03 07:18:04;;;;;;;38.23;19.13;;;;;;;;;;12944336;22;20192;-80
2021/03/03 07:23:06;;;;;;;38.13;18.80;;;;;;;;;;12930129;22;20174;-80
2021/03/03 07:28:11;;;;;;;46.40;19.53;;;;;;;;;;12948242;22;20210;-81
2021/03/03 07:33:14;;;;;;;42.33;20.40;;;;;;;;;;12963552;22;20366;-81
2021/03/03 07:38:17;;;;;;;34.47;19.10;;;;;;;;;;12967647;22;20273;-79
2021/03/03 07:43:22;;;;;;;38.47;18.70;;;;;;;;;;12946215;22;20181;-81
2021/03/03 07:48:26;;;;;;;41.63;20.13;;;;;;;;;;12971135;22;20643;-79
2021/03/03 07:53:29;;;;;;;34.73;18.50;;;;;;;;;;12945099;22;20663;-79
2021/03/03 07:58:31;;;;;;;39.73;19.97;;;;;;;;;;12949377;22;20240;-79
2021/03/03 08:03:56;;;;;;;37.13;18.23;;;;;;;;;;12947824;22;20856;-81
2021/03/03 08:09:09;;;;;;;35.47;18.87;;;;;;;;;;12951854;22;20205;-79
2021/03/03 08:14:35;;;;;;;40.13;18.30;;;;;;;;;;12949104;22;20177;-80
2021/03/03 08:19:56;;;;;;;32.50;15.87;;;;;;;;;;12917232;22;20175;-80
2021/03/03 08:24:58;;;;;;;26.77;15.10;;;;;;;;;;12969526;22;20198;-80
2021/03/03 08:30:13;;;;;;;24.80;14.50;;;;;;;;;;12972112;22;20198;-80
2021/03/03 08:35:36;;;;;;;24.57;13.47;;;;;;;;;;12950473;22;20189;-81
2021/03/03 08:40:38;;;;;;;21.67;12.20;;;;;;;;;;12973281;22;20205;-80
2021/03/03 08:45:41;;;;;;;23.87;11.80;;;;;;;;;;12950283;22;20175;-80
2021/03/03 08:50:44;;;;;;;16.43;10.83;;;;;;;;;;12955179;22;20236;-80
2021/03/03 08:55:48;;;;;;;19.67;9.43;;;;;;;;;;12948623;22;20490;-79
2021/03/03 09:00:50;;;;;;;15.67;9.73;;;;;;;;;;12951539;22;20184;-82
2021/03/03 09:05:52;;;;;;;21.53;9.97;;;;;;;;;;12972662;22;20190;-81
2021/03/03 09:10:55;;;;;;;15.70;10.43;;;;;;;;;;12950322;22;20252;-80
2021/03/03 09:16:03;;;;;;;17.50;9.77;;;;;;;;;;12953383;22;20202;-79
2021/03/03 09:21:06;;;;;;;19.97;10.77;;;;;;;;;;12935600;22;20178;-78
2021/03/03 09:26:18;;;;;;;18.07;10.70;;;;;;;;;;12969894;22;20193;-78
2021/03/03 09:31:29;;;;;;;18.53;10.73;;;;;;;;;;12966554;22;20198;-80
2021/03/03 09:36:32;;;;;;;19.07;11.57;;;;;;;;;;12949482;22;20707;-80
2021/03/03 09:41:35;;;;;;;17.93;10.80;;;;;;;;;;12951349;22;20178;-80
2021/03/03 09:46:56;;;;;;;16.13;10.80;;;;;;;;;;12948628;22;20174;-80
2021/03/03 09:51:59;;;;;;;17.90;11.30;;;;;;;;;;12970724;22;20210;-80
2021/03/03 09:57:02;;;;;;;19.30;11.40;;;;;;;;;;12975181;22;20534;-79
2021/03/03 10:02:05;;;;;;;18.53;12.03;;;;;;;;;;12951164;22;20228;-81
2021/03/03 10:07:11;;;;;;;22.13;12.70;;;;;;;;;;12967642;22;20554;-80
2021/03/03 10:12:14;;;;;;;22.40;12.60;;;;;;;;;;12972036;22;20226;-80
2021/03/03 10:17:26;;;;;;;26.27;14.97;;;;;;;;;;12947618;22;20174;-80
2021/03/03 10:22:28;;;;;;;25.83;15.10;;;;;;;;;;12970062;22;20284;-81
2021/03/03 10:27:36;;;;;;;28.87;15.33;;;;;;;;;;12972804;22;20196;-81
2021/03/03 10:32:41;;;;;;;25.73;15.70;;;;;;;;;;12970669;22;20194;-80
2021/03/03 10:37:43;;;;;;;25.30;16.13;;;;;;;;;;12976113;22;20510;-80
2021/03/03 10:42:46;;;;;;;28.83;16.67;;;;;;;;;;12973055;22;20170;-80
2021/03/03 10:47:49;;;;;;;28.73;17.00;;;;;;;;;;12971430;22;20166;-81
2021/03/03 10:53:07;;;;;;;32.30;19.30;;;;;;;;;;12962860;22;20197;-81
2021/03/03 10:58:11;;;;;;;33.37;19.97;;;;;;;;;;12971884;22;20458;-80
2021/03/03 11:03:13;;;;;;;33.90;20.97;;;;;;;;;;12946150;22;20195;-79
2021/03/03 11:08:15;;;;;;;36.17;21.53;;;;;;;;;;12949383;22;20244;-80
2021/03/03 11:13:18;;;;;;;34.73;21.10;;;;;;;;;;12971043;22;20190;-82
2021/03/03 11:18:20;;;;;;;46.10;22.53;;;;;;;;;;12949994;22;20277;-80
2021/03/03 11:23:22;;;;;;;39.77;23.37;;;;;;;;;;12950095;22;20943;-83
2021/03/03 11:28:25;;;;;;;43.73;24.60;;;;;;;;;;12968416;22;20431;-77
2021/03/03 11:33:27;;;;;;;43.00;25.17;;;;;;;;;;12948449;22;20182;-78
2021/03/03 11:38:30;;;;;;;40.87;24.97;;;;;;;;;;12945530;22;20209;-79
2021/03/03 11:43:33;;;;;;;43.63;25.70;;;;;;;;;;12948265;22;20260;-78
2021/03/03 11:48:35;;;;;;;44.50;26.63;;;;;;;;;;12948125;22;20284;-78
2021/03/03 11:53:37;;;;;;;44.23;26.67;;;;;;;;;;12942337;22;20186;-78
2021/03/03 11:58:40;;;;;;;44.77;26.80;;;;;;;;;;12944618;22;20273;-77
2021/03/03 12:03:42;;;;;;;46.13;26.93;;;;;;;;;;12956532;22;20632;-78
2021/03/03 12:08:44;;;;;;;47.10;26.60;;;;;;;;;;12949175;22;20210;-78
2021/03/03 12:13:47;;;;;;;44.87;26.43;;;;;;;;;;12952868;22;20174;-79
2021/03/03 12:18:49;;;;;;;49.47;27.17;;;;;;;;;;12950705;22;20740;-80
2021/03/03 12:23:51;;;;;;;49.10;27.73;;;;;;;;;;12972359;22;20201;-78
2021/03/03 12:28:53;;;;;;;45.73;26.17;;;;;;;;;;12945766;22;20318;-77
2021/03/03 12:33:57;;;;;;;50.30;27.93;;;;;;;;;;12952501;22;20187;-80
2021/03/03 12:39:03;;;;;;;57.10;29.73;;;;;;;;;;12953918;22;20174;-77
2021/03/03 12:44:06;;;;;;;53.97;30.43;;;;;;;;;;12953122;22;20174;-76
2021/03/03 12:49:08;;;;;;;55.50;29.43;;;;;;;;;;12953869;22;20198;-78
2021/03/03 12:54:10;;;;;;;54.50;29.00;;;;;;;;;;12956998;22;20241;-77
2021/03/03 12:59:13;;;;;;;53.83;29.30;;;;;;;;;;12974964;22;20921;-78
2021/03/03 13:04:16;;;;;;;49.53;28.93;;;;;;;;;;12955957;22;20203;-78
2021/03/03 13:09:18;;;;;;;58.07;30.53;;;;;;;;;;12974259;22;20301;-78
2021/03/03 13:14:21;;;;;;;59.40;32.90;;;;;;;;;;12976275;22;20162;-78
2021/03/03 13:19:23;;;;;;;57.97;32.43;;;;;;;;;;12976338;22;20171;-78
2021/03/03 13:24:25;;;;;;;61.47;31.77;;;;;;;;;;12954112;22;20179;-77
2021/03/03 13:29:28;;;;;;;58.10;32.73;;;;;;;;;;12954214;22;20210;-78
2021/03/03 13:34:29;;;;;;;63.80;31.40;;;;;;;;;;12975663;22;20558;-77
2021/03/03 13:39:31;;;;;;;64.10;33.53;;;;;;;;;;12953879;22;20175;-77
2021/03/03 13:44:34;;;;;;;59.87;32.10;;;;;;;;;;12951072;22;20184;-77
2021/03/03 13:49:36;;;;;;;64.83;34.10;;;;;;;;;;12953740;22;20245;-77
2021/03/03 13:54:38;;;;;;;64.00;33.07;;;;;;;;;;12950534;22;20723;-77
2021/03/03 13:59:41;;;;;;;56.47;30.00;;;;;;;;;;12954568;22;20185;-78
2021/03/03 14:04:43;;;;;;;58.47;31.23;;;;;;;;;;12953477;22;20194;-79
2021/03/03 14:09:45;;;;;;;60.03;31.93;;;;;;;;;;12949971;22;20213;-77
2021/03/03 14:14:47;;;;;;;61.13;31.57;;;;;;;;;;12953023;22;20185;-78
2021/03/03 14:19:49;;;;;;;56.10;29.80;;;;;;;;;;12953871;22;20627;-78
2021/03/03 14:24:51;;;;;;;56.50;28.17;;;;;;;;;;12952838;22;20175;-77
2021/03/03 14:29:54;;;;;;;58.53;31.10;;;;;;;;;;12953360;22;20202;-78
2021/03/03 14:34:56;;;;;;;57.93;30.37;;;;;;;;;;12954588;22;20254;-78
2021/03/03 14:39:58;;;;;;;63.70;29.03;;;;;;;;;;12955462;22;20253;-77
2021/03/03 14:45:01;;;;;;;60.73;30.33;;;;;;;;;;12953669;22;20175;-77
2021/03/03 14:50:03;;;;;;;59.90;29.97;;;;;;;;;;12953661;22;20209;-77
2021/03/03 14:55:05;;;;;;;57.73;30.90;;;;;;;;;;12950456;22;20190;-77
2021/03/03 15:00:10;;;;;;;58.87;31.60;;;;;;;;;;12953627;22;20644;-79
2021/03/03 15:05:12;;;;;;;64.27;31.97;;;;;;;;;;12954178;22;20202;-79
2021/03/03 15:10:14;;;;;;;63.00;31.97;;;;;;;;;;12956117;22;20249;-79
2021/03/03 15:15:17;;;;;;;59.03;29.93;;;;;;;;;;12955086;22;20593;-78
2021/03/03 15:20:18;;;;;;;59.60;28.80;;;;;;;;;;12974138;22;20482;-79
2021/03/03 15:25:20;;;;;;;52.77;27.13;;;;;;;;;;12971158;22;20940;-77
2021/03/03 15:30:24;;;;;;;57.20;26.00;;;;;;;;;;12971529;22;20685;-78
2021/03/03 15:35:26;;;;;;;51.67;26.60;;;;;;;;;;12952838;22;20178;-77
2021/03/03 15:40:28;;;;;;;56.30;25.33;;;;;;;;;;12972505;22;20173;-79
2021/03/03 15:45:30;;;;;;;57.37;26.43;;;;;;;;;;12952959;22;20209;-78
2021/03/03 15:50:32;;;;;;;55.13;27.33;;;;;;;;;;12955534;22;20202;-80
2021/03/03 15:55:49;;;;;;;58.67;26.37;;;;;;;;;;12955907;22;20184;-79
2021/03/03 16:00:52;;;;;;;53.73;27.03;;;;;;;;;;12953446;22;20514;-79
2021/03/03 16:05:54;;;;;;;52.53;26.70;;;;;;;;;;12955153;22;20200;-80
2021/03/03 16:10:56;;;;;;;55.23;27.93;;;;;;;;;;12954020;22;20304;-78
2021/03/03 16:15:59;;;;;;;52.30;26.03;;;;;;;;;;12953958;22;20257;-79
2021/03/03 16:21:01;;;;;;;53.13;27.47;;;;;;;;;;12955087;22;20206;-80
2021/03/03 16:26:04;;;;;;;62.03;28.07;;;;;;;;;;12952794;22;20209;-79
2021/03/03 16:31:10;;;;;;;54.93;27.43;;;;;;;;;;12975512;22;20285;-78
2021/03/03 16:36:12;;;;;;;60.20;27.07;;;;;;;;;;12953696;22;20213;-78
2021/03/03 16:41:16;;;;;;;111.83;52.53;;;;;;;;;;12953436;22;20531;-80
2021/03/03 16:46:18;;;;;;;85.37;41.10;;;;;;;;;;12974602;22;20251;-80
2021/03/03 16:51:21;;;;;;;97.13;45.47;;;;;;;;;;12972291;22;20237;-83
2021/03/03 16:56:24;;;;;;;91.47;41.77;;;;;;;;;;12967952;22;20688;-81
2021/03/03 17:01:27;;;;;;;102.00;44.80;;;;;;;;;;12946612;22;20284;-81
2021/03/03 17:06:29;;;;;;;104.97;43.33;;;;;;;;;;12946167;22;20285;-81
2021/03/03 17:11:30;;;;;;;103.67;43.13;;;;;;;;;;12948367;22;20217;-81
2021/03/03 17:16:34;;;;;;;106.00;45.40;;;;;;;;;;12965969;22;20225;-81
2021/03/03 17:21:37;;;;;;;114.07;46.00;;;;;;;;;;12945291;22;20935;-81
2021/03/03 17:26:40;;;;;;;114.70;45.67;;;;;;;;;;12945203;22;20687;-79
2021/03/03 17:31:43;;;;;;;120.80;48.03;;;;;;;;;;12967189;22;20248;-79
2021/03/03 17:36:45;;;;;;;108.50;44.90;;;;;;;;;;12966056;22;20182;-81
2021/03/03 17:41:47;;;;;;;99.20;41.37;;;;;;;;;;12965290;22;20173;-79
2021/03/03 17:46:50;;;;;;;97.50;37.90;;;;;;;;;;12984743;22;20631;-80
2021/03/03 17:51:53;;;;;;;85.23;35.23;;;;;;;;;;12975381;22;20212;-79
2021/03/03 17:56:55;;;;;;;82.70;34.63;;;;;;;;;;12958777;22;20182;-79
2021/03/03 18:01:59;;;;;;;81.40;34.47;;;;;;;;;;12973749;22;20548;-79
2021/03/03 18:07:03;;;;;;;79.33;33.93;;;;;;;;;;12948364;22;20290;-79
2021/03/03 18:12:06;;;;;;;83.30;36.90;;;;;;;;;;12975488;22;20213;-80
2021/03/03 18:17:24;;;;;;;77.73;35.37;;;;;;;;;;12949252;22;20589;-79
2021/03/03 18:22:29;;;;;;;82.10;39.27;;;;;;;;;;12974609;22;20166;-81
2021/03/03 18:27:38;;;;;;;82.13;35.27;;;;;;;;;;12971590;22;20616;-82
2021/03/03 18:33:05;;;;;;;82.57;37.37;;;;;;;;;;12972576;22;20277;-81
2021/03/03 18:38:08;;;;;;;82.20;36.97;;;;;;;;;;12952047;22;20894;-81
2021/03/03 18:43:11;;;;;;;80.13;36.40;;;;;;;;;;12953116;22;20177;-80
2021/03/03 18:48:19;;;;;;;83.87;37.33;;;;;;;;;;12972480;22;20182;-81
2021/03/03 18:53:26;;;;;;;81.27;37.57;;;;;;;;;;12941591;22;20331;-84
2021/03/03 18:58:28;;;;;;;84.43;37.43;;;;;;;;;;12967185;22;20180;-83
2021/03/03 19:03:31;;;;;;;79.53;37.63;;;;;;;;;;12964130;22;20260;-80
2021/03/03 19:08:33;;;;;;;80.73;37.13;;;;;;;;;;12964142;22;20175;-81
2021/03/03 19:13:35;;;;;;;90.60;39.50;;;;;;;;;;12963163;22;20208;-79
2021/03/03 19:18:54;;;;;;;83.83;39.73;;;;;;;;;;12965079;22;20258;-81
2021/03/03 19:24:06;;;;;;;88.90;41.33;;;;;;;;;;12963385;22;20158;-81
2021/03/03 19:29:27;;;;;;;87.90;41.30;;;;;;;;;;12941916;22;20202;-81
2021/03/03 19:34:29;;;;;;;84.97;40.83;;;;;;;;;;12965866;22;20179;-80
2021/03/03 19:39:32;;;;;;;87.03;40.60;;;;;;;;;;12942892;22;20285;-80
2021/03/03 19:44:34;;;;;;;89.27;41.37;;;;;;;;;;12943035;22;20257;-80
2021/03/03 19:49:36;;;;;;;89.10;40.97;;;;;;;;;;12964559;22;20664;-81
2021/03/03 19:54:39;;;;;;;87.67;40.97;;;;;;;;;;12943976;22;20190;-81
2021/03/03 19:59:41;;;;;;;84.57;41.30;;;;;;;;;;12963132;22;20233;-81
2021/03/03 20:04:45;;;;;;;86.57;41.60;;;;;;;;;;12966064;22;20194;-80
2021/03/03 20:09:48;;;;;;;88.87;43.20;;;;;;;;;;12960322;22;20747;-80
2021/03/03 20:14:51;;;;;;;96.43;43.90;;;;;;;;;;12964507;22;20186;-80
2021/03/03 20:19:53;;;;;;;106.03;46.57;;;;;;;;;;12944743;22;20245;-79
2021/03/03 20:24:56;;;;;;;105.50;46.67;;;;;;;;;;12964536;22;20178;-80
2021/03/03 20:29:58;;;;;;;100.27;46.37;;;;;;;;;;12944049;22;20240;-81
2021/03/03 20:35:05;;;;;;;105.37;47.17;;;;;;;;;;12947568;22;20193;-80
2021/03/03 20:40:22;;;;;;;99.63;45.30;;;;;;;;;;12946120;22;20198;-81
2021/03/03 20:45:27;;;;;;;94.97;44.43;;;;;;;;;;12967032;22;20616;-81
2021/03/03 20:50:30;;;;;;;97.00;46.00;;;;;;;;;;12964036;22;20216;-81
2021/03/03 20:55:33;;;;;;;102.87;47.53;;;;;;;;;;12966696;22;20182;-81
2021/03/03 21:00:35;;;;;;;99.33;45.17;;;;;;;;;;12971012;22;20889;-83
2021/03/03 21:05:37;;;;;;;102.13;46.97;;;;;;;;;;12968686;22;20667;-82
2021/03/03 21:10:40;;;;;;;106.73;45.97;;;;;;;;;;12967831;22;20206;-83
2021/03/03 21:15:42;;;;;;;104.50;49.27;;;;;;;;;;12968546;22;20385;-83
2021/03/03 21:20:44;;;;;;;120.30;50.43;;;;;;;;;;12967920;22;20178;-81
2021/03/03 21:25:48;;;;;;;119.33;50.37;;;;;;;;;;12967853;22;20417;-82
2021/03/03 21:30:51;;;;;;;122.63;51.00;;;;;;;;;;12967326;22;20207;-82
2021/03/03 21:35:53;;;;;;;126.90;55.60;;;;;;;;;;12968420;22;20261;-82
2021/03/03 21:40:56;;;;;;;128.20;52.83;;;;;;;;;;12966643;22;20208;-81
2021/03/03 21:45:58;;;;;;;146.77;55.50;;;;;;;;;;12966530;22;20181;-79
2021/03/03 21:51:00;;;;;;;133.10;54.83;;;;;;;;;;12944761;22;20206;-78
2021/03/03 21:56:03;;;;;;;121.57;52.37;;;;;;;;;;12967065;22;20178;-78
2021/03/03 22:01:06;;;;;;;123.73;51.57;;;;;;;;;;12945132;22;20398;-79
2021/03/03 22:06:09;;;;;;;120.37;54.10;;;;;;;;;;12945120;22;20185;-77
2021/03/03 22:11:11;;;;;;;119.77;50.63;;;;;;;;;;12947379;22;20199;-78
2021/03/03 22:16:13;;;;;;;124.40;51.20;;;;;;;;;;12972096;22;20179;-78
2021/03/03 22:21:19;;;;;;;122.20;50.10;;;;;;;;;;12970016;22;20285;-77
2021/03/03 22:26:21;;;;;;;121.80;51.27;;;;;;;;;;12954710;22;20471;-78
2021/03/03 22:31:24;;;;;;;107.53;46.90;;;;;;;;;;12969495;22;20271;-79
2021/03/03 22:36:37;;;;;;;121.07;48.27;;;;;;;;;;12950059;22;20769;-77
2021/03/03 22:41:39;;;;;;;108.07;45.23;;;;;;;;;;12952452;22;20624;-77
2021/03/03 22:46:52;;;;;;;109.47;45.33;;;;;;;;;;12950689;22;20198;-77
2021/03/03 22:51:55;;;;;;;107.30;44.47;;;;;;;;;;12950270;22;20225;-76
2021/03/03 22:56:58;;;;;;;107.53;44.47;;;;;;;;;;12969863;22;20178;-77
2021/03/03 23:02:03;;;;;;;107.27;44.03;;;;;;;;;;12945249;22;20202;-78
2021/03/03 23:07:06;;;;;;;103.87;42.10;;;;;;;;;;12969438;22;20428;-78
2021/03/03 23:12:09;;;;;;;103.60;43.57;;;;;;;;;;12948795;22;20333;-78
2021/03/03 23:17:14;;;;;;;107.73;43.30;;;;;;;;;;12970540;22;20178;-77
2021/03/03 23:22:16;;;;;;;107.30;44.23;;;;;;;;;;12964892;22;21031;-78
2021/03/03 23:27:19;;;;;;;110.10;44.47;;;;;;;;;;12950473;22;20257;-78
2021/03/03 23:32:21;;;;;;;110.67;42.20;;;;;;;;;;12946315;22;20202;-77
2021/03/03 23:37:23;;;;;;;107.93;44.03;;;;;;;;;;12969369;22;20529;-77
2021/03/03 23:42:26;;;;;;;109.10;43.97;;;;;;;;;;12948649;22;20174;-77
2021/03/03 23:47:28;;;;;;;105.97;42.67;;;;;;;;;;12947941;22;20178;-78
2021/03/03 23:52:30;;;;;;;114.83;43.40;;;;;;;;;;12967296;22;20206;-77
2021/03/03 23:57:33;;;;;;;108.90;41.90;;;;;;;;;;12969841;22;20848;-78
